createdAt,value
2023-03-17T00:04:55.908Z,7.61
2023-03-17T00:14:59.728Z,7.49
2023-03-17T00:25:02.149Z,7.67
2023-03-17T00:35:06.742Z,7.48
2023-03-17T00:45:10.194Z,7.41
2023-03-17T00:55:14.307Z,7.47
2023-03-17T01:05:17.182Z,7.40
2023-03-17T01:15:21.664Z,7.35
2023-03-17T01:25:25.323Z,7.39
2023-03-17T01:35:30.230Z,7.28
2023-03-17T01:45:51.668Z,7.29
2023-03-17T01:55:57.903Z,7.36
2023-03-17T02:06:00.587Z,7.22
2023-03-17T02:16:05.695Z,7.17
2023-03-17T02:26:09.653Z,7.20
2023-03-17T02:36:12.146Z,7.28
2023-03-17T02:46:16.733Z,7.26
2023-03-17T02:56:19.239Z,7.10
2023-03-17T03:06:23.702Z,7.21
2023-03-17T03:16:26.277Z,7.01
2023-03-17T03:26:30.166Z,7.06
2023-03-17T03:36:33.294Z,7.10
2023-03-17T03:46:37.153Z,6.96
2023-03-17T03:56:39.658Z,6.74
2023-03-17T04:06:43.667Z,6.80
2023-03-17T04:16:46.299Z,6.45
2023-03-17T04:26:50.182Z,6.50
2023-03-17T04:36:53.133Z,6.35
2023-03-17T04:46:56.945Z,6.34
2023-03-17T04:56:59.416Z,6.07
2023-03-17T05:07:03.218Z,6.02
2023-03-17T05:17:05.711Z,5.91
2023-03-17T05:27:09.753Z,5.97
2023-03-17T05:37:12.674Z,5.97
2023-03-17T05:47:16.507Z,6.09
2023-03-17T05:57:19.147Z,6.41
2023-03-17T06:07:22.947Z,6.36
2023-03-17T06:17:25.412Z,6.29
2023-03-17T06:27:29.289Z,6.32
2023-03-17T06:37:31.779Z,6.50
2023-03-17T06:47:37.219Z,6.49
2023-03-17T06:57:39.678Z,6.90
2023-03-17T07:07:43.548Z,7.12
2023-03-17T07:17:46.901Z,7.30
2023-03-17T07:27:51.910Z,7.54
2023-03-17T07:37:54.380Z,7.91
2023-03-17T07:47:58.223Z,8.11
2023-03-17T07:58:00.846Z,8.40
2023-03-17T08:08:05.241Z,8.59
2023-03-17T08:18:08.005Z,8.86
2023-03-17T08:28:11.755Z,9.12
2023-03-17T08:38:14.290Z,9.35
2023-03-17T08:48:18.132Z,9.52
2023-03-17T08:58:20.603Z,9.71
2023-03-17T09:08:24.787Z,10.06
2023-03-17T09:18:27.325Z,10.62
2023-03-17T09:28:31.140Z,11.27
2023-03-17T09:38:33.615Z,11.60
2023-03-17T09:48:46.431Z,11.89
2023-03-17T09:58:52.773Z,12.26
2023-03-17T10:09:00.626Z,12.71
2023-03-17T10:19:05.687Z,13.23
2023-03-17T10:29:14.159Z,13.85
2023-03-17T10:39:18.585Z,14.23
2023-03-17T10:49:24.553Z,14.68
2023-03-17T10:59:28.939Z,15.32
2023-03-17T11:09:35.600Z,15.74
2023-03-17T11:19:43.378Z,16.34
2023-03-17T11:29:54.435Z,16.72
2023-03-17T11:40:04.141Z,17.64
2023-03-17T11:50:17.783Z,17.87
2023-03-17T12:00:23.679Z,17.93
2023-03-17T12:10:31.112Z,18.79
2023-03-17T12:20:39.378Z,19.48
2023-03-17T12:30:46.150Z,19.73
2023-03-17T12:40:59.607Z,19.93
2023-03-17T12:51:18.999Z,19.94
2023-03-17T13:01:26.647Z,19.66
2023-03-17T13:11:46.595Z,19.43
2023-03-17T13:21:54.120Z,19.83
2023-03-17T13:32:11.421Z,20.41
2023-03-17T13:42:20.670Z,20.23
2023-03-17T13:52:28.351Z,21.21
2023-03-17T14:02:35.049Z,20.95
2023-03-17T14:12:40.881Z,20.52
2023-03-17T14:22:45.967Z,20.02
2023-03-17T14:32:49.907Z,19.50
2023-03-17T14:42:53.773Z,19.24
2023-03-17T14:52:56.622Z,19.23
2023-03-17T15:03:02.205Z,19.30
2023-03-17T15:13:05.849Z,18.86
2023-03-17T15:23:16.972Z,18.65
2023-03-17T15:33:22.117Z,18.34
2023-03-17T15:43:26.003Z,18.18
2023-03-17T15:53:28.556Z,18.09
2023-03-17T16:03:33.638Z,18.04
2023-03-17T16:13:36.124Z,17.94
2023-03-17T16:23:39.996Z,17.65
2023-03-17T16:33:43.186Z,17.48
2023-03-17T16:43:50.892Z,17.35
2023-03-17T16:53:53.392Z,17.15
2023-03-17T17:03:57.351Z,16.87
2023-03-17T17:13:59.781Z,16.90
2023-03-17T17:24:03.646Z,16.67
2023-03-17T17:34:06.129Z,16.47
2023-03-17T17:44:10.018Z,16.31
2023-03-17T17:54:12.477Z,16.13
2023-03-17T18:04:16.466Z,16.00
2023-03-17T18:14:18.921Z,15.81
2023-03-17T18:24:22.731Z,15.80
2023-03-17T18:34:26.974Z,15.85
2023-03-17T18:55:34.257Z,15.53
2023-03-17T19:05:39.395Z,15.40
2023-03-17T19:15:43.306Z,15.26
2023-03-17T19:25:45.947Z,15.14
2023-03-17T19:35:53.877Z,14.97
2023-03-17T19:45:56.698Z,14.85
2023-03-17T19:56:00.682Z,14.70
2023-03-17T20:06:06.019Z,14.67
2023-03-17T20:16:10.144Z,14.56
2023-03-17T20:26:13.057Z,14.47
2023-03-17T20:36:16.891Z,14.35
2023-03-17T20:46:20.523Z,14.38
2023-03-17T20:56:29.684Z,14.30
2023-03-17T21:06:48.473Z,14.23
2023-03-17T21:16:53.335Z,14.02
2023-03-17T21:26:56.518Z,13.92
2023-03-17T21:37:14.017Z,13.76
2023-03-17T21:47:17.889Z,13.79
2023-03-17T21:57:20.392Z,13.72
2023-03-17T22:07:24.208Z,13.61
2023-03-17T22:17:27.066Z,13.49
2023-03-17T22:27:30.954Z,13.47
2023-03-17T22:37:33.578Z,13.30
2023-03-17T22:47:37.478Z,13.12
2023-03-17T22:57:40.298Z,13.04
2023-03-17T23:07:51.897Z,13.04
2023-03-17T23:17:54.511Z,12.99
2023-03-17T23:27:58.374Z,12.90
2023-03-17T23:38:02.203Z,12.75
2023-03-17T23:48:10.002Z,12.68
2023-03-17T23:58:15.674Z,12.69
